sensor_id;sensor_type;location;lat;lon;timestamp;pressure;altitude;pressure_sealevel;temperature;humidity
19624;BME280;9959;49.798;9.928;2022-08-19T00:01:49;99001.34;;;20.82;nan
19624;BME280;9959;49.798;9.928;2022-08-19T00:04:21;99003.66;;;20.75;84.01
19624;BME280;9959;49.798;9.928;2022-08-19T00:06:50;99009.50;;;20.77;nan
19624;BME280;9959;49.798;9.928;2022-08-19T00:09:20;99000.38;;;20.78;nan
19624;BME280;9959;49.798;9.928;2022-08-19T00:11:50;99003.75;;;20.70;82.72
19624;BME280;9959;49.798;9.928;2022-08-19T00:14:19;98995.00;;;20.64;82.71
19624;BME280;9959;49.798;9.928;2022-08-19T00:16:49;98991.00;;;20.53;82.62
19624;BME280;9959;49.798;9.928;2022-08-19T00:19:17;98980.41;;;20.48;82.62
19624;BME280;9959;49.798;9.928;2022-08-19T00:21:45;98971.28;;;20.49;82.89
19624;BME280;9959;49.798;9.928;2022-08-19T00:24:14;98966.81;;;20.44;83.97
19624;BME280;9959;49.798;9.928;2022-08-19T00:26:44;98968.00;;;20.52;nan
19624;BME280;9959;49.798;9.928;2022-08-19T00:29:16;98972.97;;;20.44;88.32
19624;BME280;9959;49.798;9.928;2022-08-19T00:31:45;98975.38;;;20.32;83.96
19624;BME280;9959;49.798;9.928;2022-08-19T00:34:14;98969.34;;;20.26;100.00
19624;BME280;9959;49.798;9.928;2022-08-19T00:36:42;98965.47;;;20.33;82.69
19624;BME280;9959;49.798;9.928;2022-08-19T00:39:11;98967.94;;;20.29;83.95
19624;BME280;9959;49.798;9.928;2022-08-19T00:41:47;98962.78;;;20.33;83.23
19624;BME280;9959;49.798;9.928;2022-08-19T00:44:19;98963.97;;;20.26;94.08
19624;BME280;9959;49.798;9.928;2022-08-19T00:46:53;98969.84;;;20.28;83.95
19624;BME280;9959;49.798;9.928;2022-08-19T00:49:27;98970.06;;;20.18;83.95
19624;BME280;9959;49.798;9.928;2022-08-19T00:51:59;98969.47;;;20.21;83.95
19624;BME280;9959;49.798;9.928;2022-08-19T00:54:28;98968.25;;;20.14;82.51
19624;BME280;9959;49.798;9.928;2022-08-19T00:56:58;98963.72;;;20.14;nan
19624;BME280;9959;49.798;9.928;2022-08-19T00:59:28;98972.16;;;20.07;nan
19624;BME280;9959;49.798;9.928;2022-08-19T01:02:16;98973.75;;;20.08;82.53
19624;BME280;9959;49.798;9.928;2022-08-19T01:04:44;98967.41;;;20.04;82.84
19624;BME280;9959;49.798;9.928;2022-08-19T01:07:12;98964.25;;;20.02;83.93
19624;BME280;9959;49.798;9.928;2022-08-19T01:09:45;98967.19;;;20.01;100.00
19624;BME280;9959;49.798;9.928;2022-08-19T01:12:14;98969.59;;;20.02;83.93
19624;BME280;9959;49.798;9.928;2022-08-19T01:14:44;98965.31;;;20.01;82.66
19624;BME280;9959;49.798;9.928;2022-08-19T01:17:13;98968.78;;;20.02;94.06
19624;BME280;9959;49.798;9.928;2022-08-19T01:19:43;98966.78;;;19.93;100.00
19624;BME280;9959;49.798;9.928;2022-08-19T01:22:17;98957.22;;;19.92;nan
19624;BME280;9959;49.798;9.928;2022-08-19T01:24:56;98947.41;;;19.88;83.19
19624;BME280;9959;49.798;9.928;2022-08-19T01:27:25;98947.50;;;19.83;nan
19624;BME280;9959;49.798;9.928;2022-08-19T01:29:55;98950.22;;;19.77;100.00
19624;BME280;9959;49.798;9.928;2022-08-19T01:32:24;98957.41;;;19.82;nan
19624;BME280;9959;49.798;9.928;2022-08-19T01:34:59;98969.78;;;19.78;100.00
19624;BME280;9959;49.798;9.928;2022-08-19T01:37:29;98978.09;;;19.76;100.00
19624;BME280;9959;49.798;9.928;2022-08-19T01:39:59;98977.19;;;19.67;100.00
19624;BME280;9959;49.798;9.928;2022-08-19T01:42:29;98997.19;;;19.70;88.24
19624;BME280;9959;49.798;9.928;2022-08-19T01:44:58;99005.91;;;19.75;82.81
19624;BME280;9959;49.798;9.928;2022-08-19T01:47:26;99002.59;;;19.84;83.91
19624;BME280;9959;49.798;9.928;2022-08-19T01:49:54;99007.50;;;19.76;100.00
19624;BME280;9959;49.798;9.928;2022-08-19T01:52:22;99013.88;;;19.81;88.25
19624;BME280;9959;49.798;9.928;2022-08-19T01:54:50;98999.78;;;19.75;83.90
19624;BME280;9959;49.798;9.928;2022-08-19T01:57:19;99000.78;;;19.79;88.25
19624;BME280;9959;49.798;9.928;2022-08-19T01:59:47;98999.38;;;19.68;82.46
19624;BME280;9959;49.798;9.928;2022-08-19T02:02:16;99005.56;;;19.82;83.91
19624;BME280;9959;49.798;9.928;2022-08-19T02:04:44;99001.59;;;19.80;100.00
19624;BME280;9959;49.798;9.928;2022-08-19T02:07:14;99004.50;;;19.64;100.00
19624;BME280;9959;49.798;9.928;2022-08-19T02:09:41;99015.22;;;19.64;82.49
19624;BME280;9959;49.798;9.928;2022-08-19T02:12:09;99018.59;;;19.70;100.00
19624;BME280;9959;49.798;9.928;2022-08-19T02:14:39;99005.81;;;19.67;100.00
19624;BME280;9959;49.798;9.928;2022-08-19T02:17:07;99012.44;;;19.69;88.24
19624;BME280;9959;49.798;9.928;2022-08-19T02:19:35;99008.66;;;19.70;83.90
19624;BME280;9959;49.798;9.928;2022-08-19T02:22:07;99005.47;;;19.54;83.88
19624;BME280;9959;49.798;9.928;2022-08-19T02:24:35;99003.09;;;19.53;82.79
19624;BME280;9959;49.798;9.928;2022-08-19T02:27:03;99001.81;;;19.50;82.79
19624;BME280;9959;49.798;9.928;2022-08-19T02:29:32;98998.16;;;19.46;83.88
19624;BME280;9959;49.798;9.928;2022-08-19T02:32:01;98999.53;;;19.44;83.87
19624;BME280;9959;49.798;9.928;2022-08-19T02:34:30;99003.59;;;19.41;83.87
19624;BME280;9959;49.798;9.928;2022-08-19T02:36:58;99009.81;;;19.36;82.43
19624;BME280;9959;49.798;9.928;2022-08-19T02:39:29;99012.97;;;19.38;83.86
19624;BME280;9959;49.798;9.928;2022-08-19T02:41:56;99011.28;;;19.29;100.00
19624;BME280;9959;49.798;9.928;2022-08-19T02:44:26;99010.19;;;19.30;88.20
19624;BME280;9959;49.798;9.928;2022-08-19T02:46:57;99001.59;;;19.33;100.00
19624;BME280;9959;49.798;9.928;2022-08-19T02:49:27;99004.13;;;19.24;83.85
19624;BME280;9959;49.798;9.928;2022-08-19T02:52:00;98995.63;;;19.22;100.00
19624;BME280;9959;49.798;9.928;2022-08-19T02:54:28;98999.97;;;19.18;83.85
19624;BME280;9959;49.798;9.928;2022-08-19T02:56:56;99003.81;;;19.12;93.95
19624;BME280;9959;49.798;9.928;2022-08-19T02:59:25;99019.56;;;19.13;100.00
19624;BME280;9959;49.798;9.928;2022-08-19T03:01:53;99027.19;;;19.20;85.30
19624;BME280;9959;49.798;9.928;2022-08-19T03:04:20;99040.84;;;19.18;100.00
19624;BME280;9959;49.798;9.928;2022-08-19T03:06:50;99041.56;;;19.24;85.29
19624;BME280;9959;49.798;9.928;2022-08-19T03:09:19;99044.34;;;19.33;100.00
19624;BME280;9959;49.798;9.928;2022-08-19T03:11:47;99037.56;;;19.40;83.14
19624;BME280;9959;49.798;9.928;2022-08-19T03:14:18;99038.63;;;19.39;85.31
19624;BME280;9959;49.798;9.928;2022-08-19T03:16:47;99027.72;;;19.36;93.97
19624;BME280;9959;49.798;9.928;2022-08-19T03:19:18;99022.66;;;19.34;100.00
19624;BME280;9959;49.798;9.928;2022-08-19T03:21:46;99023.19;;;19.36;nan
19624;BME280;9959;49.798;9.928;2022-08-19T03:24:16;99024.25;;;19.35;82.43
19624;BME280;9959;49.798;9.928;2022-08-19T03:26:47;99024.34;;;19.30;85.31
19624;BME280;9959;49.798;9.928;2022-08-19T03:29:17;99022.84;;;19.24;83.85
19624;BME280;9959;49.798;9.928;2022-08-19T03:31:56;99020.28;;;19.19;83.85
19624;BME280;9959;49.798;9.928;2022-08-19T03:34:29;99020.63;;;19.12;100.00
19624;BME280;9959;49.798;9.928;2022-08-19T03:36:58;99013.69;;;19.11;nan
19624;BME280;9959;49.798;9.928;2022-08-19T03:39:28;99020.16;;;19.10;100.00
19624;BME280;9959;49.798;9.928;2022-08-19T03:41:56;99017.53;;;19.05;100.00
19624;BME280;9959;49.798;9.928;2022-08-19T03:44:46;99018.63;;;19.04;93.94
19624;BME280;9959;49.798;9.928;2022-08-19T03:47:14;99014.16;;;18.99;100.00
19624;BME280;9959;49.798;9.928;2022-08-19T03:49:43;99017.06;;;19.03;100.00
19624;BME280;9959;49.798;9.928;2022-08-19T03:52:11;99009.88;;;18.98;100.00
19624;BME280;9959;49.798;9.928;2022-08-19T03:54:42;99006.72;;;18.96;100.00
19624;BME280;9959;49.798;9.928;2022-08-19T03:57:10;99005.13;;;18.95;100.00
19624;BME280;9959;49.798;9.928;2022-08-19T03:59:38;99008.09;;;18.94;100.00
19624;BME280;9959;49.798;9.928;2022-08-19T04:02:08;99003.34;;;18.91;83.82
19624;BME280;9959;49.798;9.928;2022-08-19T04:04:38;99020.66;;;18.93;83.10
19624;BME280;9959;49.798;9.928;2022-08-19T04:07:07;99022.31;;;18.89;83.82
19624;BME280;9959;49.798;9.928;2022-08-19T04:09:35;99022.75;;;18.96;100.00
19624;BME280;9959;49.798;9.928;2022-08-19T04:12:05;98995.03;;;18.92;83.10
19624;BME280;9959;49.798;9.928;2022-08-19T04:14:34;98998.78;;;18.91;83.82
19624;BME280;9959;49.798;9.928;2022-08-19T04:17:03;98988.69;;;18.88;100.00
19624;BME280;9959;49.798;9.928;2022-08-19T04:19:33;98981.69;;;18.92;83.82
19624;BME280;9959;49.798;9.928;2022-08-19T04:22:02;98989.69;;;18.92;83.82
19624;BME280;9959;49.798;9.928;2022-08-19T04:24:31;98994.38;;;19.00;100.00
19624;BME280;9959;49.798;9.928;2022-08-19T04:26:59;99001.38;;;18.96;100.00
19624;BME280;9959;49.798;9.928;2022-08-19T04:29:29;99002.56;;;18.90;88.15
19624;BME280;9959;49.798;9.928;2022-08-19T04:31:57;99005.22;;;18.90;83.82
19624;BME280;9959;49.798;9.928;2022-08-19T04:34:35;99016.41;;;18.92;nan
19624;BME280;9959;49.798;9.928;2022-08-19T04:37:23;99027.09;;;18.92;83.82
19624;BME280;9959;49.798;9.928;2022-08-19T04:39:54;99023.84;;;18.95;100.00
19624;BME280;9959;49.798;9.928;2022-08-19T04:42:40;99025.78;;;18.89;100.00
19624;BME280;9959;49.798;9.928;2022-08-19T04:45:13;99039.22;;;19.03;85.28
19624;BME280;9959;49.798;9.928;2022-08-19T04:47:43;99049.72;;;19.14;100.00
19624;BME280;9959;49.798;9.928;2022-08-19T04:50:23;99040.84;;;19.18;100.00
19624;BME280;9959;49.798;9.928;2022-08-19T04:52:51;99052.94;;;19.30;82.42
19624;BME280;9959;49.798;9.928;2022-08-19T04:55:20;99056.34;;;19.35;100.00
19624;BME280;9959;49.798;9.928;2022-08-19T04:57:48;99056.25;;;19.40;83.87
19624;BME280;9959;49.798;9.928;2022-08-19T05:00:18;99052.03;;;19.53;88.22
19624;BME280;9959;49.798;9.928;2022-08-19T05:02:46;99059.25;;;19.53;83.88
19624;BME280;9959;49.798;9.928;2022-08-19T05:05:16;99054.00;;;19.48;88.22
19624;BME280;9959;49.798;9.928;2022-08-19T05:07:44;99062.81;;;19.48;nan
19624;BME280;9959;49.798;9.928;2022-08-19T05:10:12;99058.16;;;19.54;nan
19624;BME280;9959;49.798;9.928;2022-08-19T05:12:40;99059.47;;;19.56;83.88
19624;BME280;9959;49.798;9.928;2022-08-19T05:15:08;99055.28;;;19.50;83.88
19624;BME280;9959;49.798;9.928;2022-08-19T05:17:38;99060.59;;;19.69;100.00
19624;BME280;9959;49.798;9.928;2022-08-19T05:20:26;99059.19;;;19.72;100.00
19624;BME280;9959;49.798;9.928;2022-08-19T05:23:12;99046.38;;;19.88;82.82
19624;BME280;9959;49.798;9.928;2022-08-19T05:25:47;99064.44;;;19.77;100.00
19624;BME280;9959;49.798;9.928;2022-08-19T05:28:15;99072.72;;;19.81;100.00
19624;BME280;9959;49.798;9.928;2022-08-19T05:30:43;99072.13;;;19.98;88.27
19624;BME280;9959;49.798;9.928;2022-08-19T05:33:14;99071.72;;;19.90;85.36
19624;BME280;9959;49.798;9.928;2022-08-19T05:35:42;99068.59;;;20.02;94.06
19624;BME280;9959;49.798;9.928;2022-08-19T05:38:11;99072.53;;;20.05;88.28
19624;BME280;9959;49.798;9.928;2022-08-19T05:40:39;99078.78;;;20.14;88.28
19624;BME280;9959;49.798;9.928;2022-08-19T05:43:08;99082.44;;;20.04;83.93
19624;BME280;9959;49.798;9.928;2022-08-19T05:45:38;99078.19;;;20.03;82.66
19624;BME280;9959;49.798;9.928;2022-08-19T05:48:08;99084.94;;;20.15;nan
19624;BME280;9959;49.798;9.928;2022-08-19T05:50:40;99087.50;;;20.06;100.00
19624;BME280;9959;49.798;9.928;2022-08-19T05:53:08;99085.13;;;20.18;88.29
19624;BME280;9959;49.798;9.928;2022-08-19T05:55:36;99088.00;;;20.08;nan
19624;BME280;9959;49.798;9.928;2022-08-19T05:58:05;99092.34;;;20.18;83.94
19624;BME280;9959;49.798;9.928;2022-08-19T06:00:35;99104.75;;;20.27;100.00
19624;BME280;9959;49.798;9.928;2022-08-19T06:03:03;99110.72;;;20.24;82.52
19624;BME280;9959;49.798;9.928;2022-08-19T06:05:40;99110.19;;;20.22;82.86
19624;BME280;9959;49.798;9.928;2022-08-19T06:08:18;99107.03;;;20.34;100.00
19624;BME280;9959;49.798;9.928;2022-08-19T06:11:13;99107.91;;;20.30;83.96
19624;BME280;9959;49.798;9.928;2022-08-19T06:13:42;99105.03;;;20.54;nan
19624;BME280;9959;49.798;9.928;2022-08-19T06:16:11;99112.47;;;20.57;82.89
19624;BME280;9959;49.798;9.928;2022-08-19T06:18:39;99110.19;;;20.78;82.91
19624;BME280;9959;49.798;9.928;2022-08-19T06:21:08;99114.56;;;20.74;nan
19624;BME280;9959;49.798;9.928;2022-08-19T06:23:36;99117.63;;;20.81;84.01
19624;BME280;9959;49.798;9.928;2022-08-19T06:26:05;99125.06;;;20.84;82.92
19624;BME280;9959;49.798;9.928;2022-08-19T06:28:34;99121.06;;;20.95;100.00
19624;BME280;9959;49.798;9.928;2022-08-19T06:31:06;99121.88;;;20.96;100.00
19624;BME280;9959;49.798;9.928;2022-08-19T06:33:34;99119.47;;;20.94;100.00
19624;BME280;9959;49.798;9.928;2022-08-19T06:36:02;99125.78;;;21.12;100.00
19624;BME280;9959;49.798;9.928;2022-08-19T06:38:32;99122.41;;;21.21;100.00
19624;BME280;9959;49.798;9.928;2022-08-19T06:41:02;99126.91;;;21.34;100.00
19624;BME280;9959;49.798;9.928;2022-08-19T06:43:33;99126.22;;;21.28;100.00
19624;BME280;9959;49.798;9.928;2022-08-19T06:46:12;99136.91;;;21.06;82.62
19624;BME280;9959;49.798;9.928;2022-08-19T06:48:41;99138.78;;;21.42;100.00
19624;BME280;9959;49.798;9.928;2022-08-19T06:51:12;99140.38;;;21.43;100.00
19624;BME280;9959;49.798;9.928;2022-08-19T06:53:46;99137.59;;;21.48;100.00
19624;BME280;9959;49.798;9.928;2022-08-19T06:56:21;99133.88;;;21.35;100.00
19624;BME280;9959;49.798;9.928;2022-08-19T06:58:51;99145.38;;;21.36;100.00
19624;BME280;9959;49.798;9.928;2022-08-19T07:01:19;99133.88;;;21.58;100.00
19624;BME280;9959;49.798;9.928;2022-08-19T07:03:48;99141.53;;;21.51;100.00
19624;BME280;9959;49.798;9.928;2022-08-19T07:06:18;99134.75;;;21.67;100.00
19624;BME280;9959;49.798;9.928;2022-08-19T07:09:09;99140.50;;;21.83;100.00
19624;BME280;9959;49.798;9.928;2022-08-19T07:11:38;99146.75;;;21.70;100.00
19624;BME280;9959;49.798;9.928;2022-08-19T07:14:06;99151.34;;;21.78;100.00
19624;BME280;9959;49.798;9.928;2022-08-19T07:16:45;99146.97;;;21.82;100.00
19624;BME280;9959;49.798;9.928;2022-08-19T07:19:14;99149.78;;;21.77;100.00
19624;BME280;9959;49.798;9.928;2022-08-19T07:21:45;99141.47;;;21.87;100.00
19624;BME280;9959;49.798;9.928;2022-08-19T07:24:15;99143.56;;;21.90;100.00
19624;BME280;9959;49.798;9.928;2022-08-19T07:26:45;99138.50;;;22.20;100.00
19624;BME280;9959;49.798;9.928;2022-08-19T07:29:18;99145.25;;;22.17;100.00
19624;BME280;9959;49.798;9.928;2022-08-19T07:31:50;99146.22;;;22.22;83.42
19624;BME280;9959;49.798;9.928;2022-08-19T07:34:19;99153.94;;;22.46;100.00
19624;BME280;9959;49.798;9.928;2022-08-19T07:36:47;99147.41;;;22.38;100.00
19624;BME280;9959;49.798;9.928;2022-08-19T07:39:19;99156.16;;;22.21;100.00
19624;BME280;9959;49.798;9.928;2022-08-19T07:41:48;99154.03;;;22.00;100.00
19624;BME280;9959;49.798;9.928;2022-08-19T07:44:18;99150.81;;;21.90;100.00
19624;BME280;9959;49.798;9.928;2022-08-19T07:46:49;99152.03;;;21.83;100.00
19624;BME280;9959;49.798;9.928;2022-08-19T07:49:19;99159.72;;;21.76;100.00
19624;BME280;9959;49.798;9.928;2022-08-19T07:51:50;99158.88;;;21.67;100.00
19624;BME280;9959;49.798;9.928;2022-08-19T07:54:20;99149.88;;;21.49;100.00
19624;BME280;9959;49.798;9.928;2022-08-19T07:56:49;99154.72;;;21.83;100.00
19624;BME280;9959;49.798;9.928;2022-08-19T07:59:18;99155.69;;;22.19;nan
19624;BME280;9959;49.798;9.928;2022-08-19T08:01:47;99163.38;;;22.34;88.53
19624;BME280;9959;49.798;9.928;2022-08-19T08:04:17;99156.47;;;22.51;nan
19624;BME280;9959;49.798;9.928;2022-08-19T08:07:02;99155.34;;;22.43;100.00
19624;BME280;9959;49.798;9.928;2022-08-19T08:09:50;99151.78;;;22.74;82.75
19624;BME280;9959;49.798;9.928;2022-08-19T08:12:26;99155.34;;;23.18;100.00
19624;BME280;9959;49.798;9.928;2022-08-19T08:15:04;99159.31;;;23.38;100.00
19624;BME280;9959;49.798;9.928;2022-08-19T08:17:38;99155.94;;;23.94;100.00
19624;BME280;9959;49.798;9.928;2022-08-19T08:20:18;99156.25;;;24.01;nan
19624;BME280;9959;49.798;9.928;2022-08-19T08:22:46;99163.53;;;23.83;100.00
19624;BME280;9959;49.798;9.928;2022-08-19T08:25:35;99164.59;;;24.09;100.00
19624;BME280;9959;49.798;9.928;2022-08-19T08:28:04;99172.28;;;24.28;94.58
19624;BME280;9959;49.798;9.928;2022-08-19T08:30:37;99171.81;;;24.25;100.00
19624;BME280;9959;49.798;9.928;2022-08-19T08:33:10;99177.31;;;23.82;100.00
19624;BME280;9959;49.798;9.928;2022-08-19T08:35:40;99172.97;;;24.07;100.00
19624;BME280;9959;49.798;9.928;2022-08-19T08:38:09;99177.22;;;24.17;100.00
19624;BME280;9959;49.798;9.928;2022-08-19T08:40:43;99178.91;;;23.74;100.00
19624;BME280;9959;49.798;9.928;2022-08-19T08:43:21;99191.53;;;24.00;100.00
19624;BME280;9959;49.798;9.928;2022-08-19T08:45:53;99179.63;;;24.10;100.00
19624;BME280;9959;49.798;9.928;2022-08-19T08:48:30;99176.13;;;24.18;nan
19624;BME280;9959;49.798;9.928;2022-08-19T08:51:03;99174.63;;;23.82;100.00
19624;BME280;9959;49.798;9.928;2022-08-19T08:53:35;99177.19;;;24.25;100.00
19624;BME280;9959;49.798;9.928;2022-08-19T08:56:09;99179.47;;;24.15;84.33
19624;BME280;9959;49.798;9.928;2022-08-19T08:58:47;99184.00;;;24.32;100.00
19624;BME280;9959;49.798;9.928;2022-08-19T09:01:20;99179.47;;;24.53;nan
19624;BME280;9959;49.798;9.928;2022-08-19T09:03:49;99192.63;;;24.55;100.00
19624;BME280;9959;49.798;9.928;2022-08-19T09:06:23;99194.31;;;24.68;100.00
19624;BME280;9959;49.798;9.928;2022-08-19T09:09:00;99189.31;;;24.49;100.00
19624;BME280;9959;49.798;9.928;2022-08-19T09:11:49;99188.88;;;24.38;100.00
19624;BME280;9959;49.798;9.928;2022-08-19T09:14:31;99189.22;;;24.37;100.00
19624;BME280;9959;49.798;9.928;2022-08-19T09:17:18;99182.22;;;24.45;100.00
19624;BME280;9959;49.798;9.928;2022-08-19T09:19:50;99182.03;;;24.50;94.60
19624;BME280;9959;49.798;9.928;2022-08-19T09:22:19;99182.19;;;24.83;nan
19624;BME280;9959;49.798;9.928;2022-08-19T09:24:51;99185.88;;;24.79;100.00
19624;BME280;9959;49.798;9.928;2022-08-19T09:27:22;99181.84;;;24.64;100.00
19624;BME280;9959;49.798;9.928;2022-08-19T09:30:13;99183.31;;;24.82;88.80
19624;BME280;9959;49.798;9.928;2022-08-19T09:32:41;99171.72;;;24.61;100.00
19624;BME280;9959;49.798;9.928;2022-08-19T09:35:10;99169.31;;;24.20;100.00
19624;BME280;9959;49.798;9.928;2022-08-19T09:37:39;99166.59;;;24.29;100.00
19624;BME280;9959;49.798;9.928;2022-08-19T09:40:10;99169.00;;;24.61;100.00
19624;BME280;9959;49.798;9.928;2022-08-19T09:42:40;99163.47;;;24.48;100.00
19624;BME280;9959;49.798;9.928;2022-08-19T09:45:19;99168.56;;;25.09;84.43
19624;BME280;9959;49.798;9.928;2022-08-19T09:47:49;99156.69;;;25.02;100.00
19624;BME280;9959;49.798;9.928;2022-08-19T09:50:21;99157.88;;;25.13;nan
19624;BME280;9959;49.798;9.928;2022-08-19T09:52:49;99164.66;;;25.19;nan
19624;BME280;9959;49.798;9.928;2022-08-19T09:55:21;99157.66;;;24.46;100.00
19624;BME280;9959;49.798;9.928;2022-08-19T09:57:53;99166.75;;;24.24;88.73
19624;BME280;9959;49.798;9.928;2022-08-19T10:00:21;99160.28;;;24.85;94.65
19624;BME280;9959;49.798;9.928;2022-08-19T10:02:49;99161.81;;;24.73;100.00
19624;BME280;9959;49.798;9.928;2022-08-19T10:05:18;99165.47;;;24.69;100.00
19624;BME280;9959;49.798;9.928;2022-08-19T10:08:08;99170.84;;;24.69;100.00
19624;BME280;9959;49.798;9.928;2022-08-19T10:10:40;99177.09;;;24.61;100.00
19624;BME280;9959;49.798;9.928;2022-08-19T10:13:15;99172.63;;;24.56;100.00
19624;BME280;9959;49.798;9.928;2022-08-19T10:15:45;99181.34;;;24.14;94.56
19624;BME280;9959;49.798;9.928;2022-08-19T10:18:15;99179.72;;;24.31;100.00
19624;BME280;9959;49.798;9.928;2022-08-19T10:20:45;99179.72;;;24.31;100.00
19624;BME280;9959;49.798;9.928;2022-08-19T10:23:18;99185.53;;;24.41;100.00
19624;BME280;9959;49.798;9.928;2022-08-19T10:25:46;99189.16;;;24.46;nan
19624;BME280;9959;49.798;9.928;2022-08-19T10:28:16;99180.34;;;24.36;100.00
19624;BME280;9959;49.798;9.928;2022-08-19T10:30:45;99177.94;;;25.03;100.00
19624;BME280;9959;49.798;9.928;2022-08-19T10:33:13;99172.38;;;25.30;100.00
19624;BME280;9959;49.798;9.928;2022-08-19T10:36:02;99174.97;;;24.75;100.00
19624;BME280;9959;49.798;9.928;2022-08-19T10:38:31;99183.72;;;25.77;100.00
19624;BME280;9959;49.798;9.928;2022-08-19T10:41:07;99173.78;;;26.15;94.79
19624;BME280;9959;49.798;9.928;2022-08-19T10:43:36;99164.22;;;26.55;100.00
19624;BME280;9959;49.798;9.928;2022-08-19T10:46:06;99165.25;;;26.62;100.00
19624;BME280;9959;49.798;9.928;2022-08-19T10:48:40;99167.50;;;26.23;100.00
19624;BME280;9959;49.798;9.928;2022-08-19T10:51:08;99168.28;;;26.48;86.03
19624;BME280;9959;49.798;9.928;2022-08-19T10:53:55;99169.47;;;27.13;83.17
19624;BME280;9959;49.798;9.928;2022-08-19T10:56:25;99168.97;;;26.45;83.10
19624;BME280;9959;49.798;9.928;2022-08-19T10:59:12;99166.72;;;26.47;100.00
19624;BME280;9959;49.798;9.928;2022-08-19T11:01:42;99173.59;;;26.45;83.10
19624;BME280;9959;49.798;9.928;2022-08-19T11:04:10;99175.84;;;26.55;100.00
19624;BME280;9959;49.798;9.928;2022-08-19T11:06:40;99166.78;;;27.69;100.00
19624;BME280;9959;49.798;9.928;2022-08-19T11:09:09;99164.34;;;27.36;100.00
19624;BME280;9959;49.798;9.928;2022-08-19T11:11:38;99161.94;;;27.06;nan
19624;BME280;9959;49.798;9.928;2022-08-19T11:14:08;99163.00;;;26.64;100.00
19624;BME280;9959;49.798;9.928;2022-08-19T11:16:38;99167.28;;;26.65;100.00
19624;BME280;9959;49.798;9.928;2022-08-19T11:19:07;99151.06;;;26.53;100.00
19624;BME280;9959;49.798;9.928;2022-08-19T11:21:37;99154.22;;;26.80;86.06
19624;BME280;9959;49.798;9.928;2022-08-19T11:24:08;99165.09;;;27.08;94.91
19624;BME280;9959;49.798;9.928;2022-08-19T11:26:38;99163.78;;;26.28;100.00
19624;BME280;9959;49.798;9.928;2022-08-19T11:29:08;99160.41;;;26.19;100.00
19624;BME280;9959;49.798;9.928;2022-08-19T11:31:41;99178.09;;;26.16;83.42
19624;BME280;9959;49.798;9.928;2022-08-19T11:34:12;99154.09;;;26.14;85.99
19624;BME280;9959;49.798;9.928;2022-08-19T11:36:43;99166.81;;;26.02;83.23
19624;BME280;9959;49.798;9.928;2022-08-19T11:39:13;99162.44;;;25.76;94.75
19624;BME280;9959;49.798;9.928;2022-08-19T11:41:42;99156.56;;;26.20;100.00
19624;BME280;9959;49.798;9.928;2022-08-19T11:44:10;99152.06;;;26.11;88.93
19624;BME280;9959;49.798;9.928;2022-08-19T11:46:42;99162.66;;;26.29;100.00
19624;BME280;9959;49.798;9.928;2022-08-19T11:49:13;99162.63;;;25.71;83.04
19624;BME280;9959;49.798;9.928;2022-08-19T11:51:41;99141.38;;;26.15;83.24
19624;BME280;9959;49.798;9.928;2022-08-19T11:54:11;99149.47;;;26.89;100.00
19624;BME280;9959;49.798;9.928;2022-08-19T11:56:40;99144.38;;;27.41;100.00
19624;BME280;9959;49.798;9.928;2022-08-19T11:59:08;99136.19;;;26.84;83.22
19624;BME280;9959;49.798;9.928;2022-08-19T12:01:41;99137.06;;;27.29;100.00
19624;BME280;9959;49.798;9.928;2022-08-19T12:04:10;99127.13;;;27.33;83.90
19624;BME280;9959;49.798;9.928;2022-08-19T12:06:40;99141.28;;;27.71;83.57
19624;BME280;9959;49.798;9.928;2022-08-19T12:09:09;99133.50;;;27.12;83.52
19624;BME280;9959;49.798;9.928;2022-08-19T12:11:38;99128.00;;;27.65;94.98
19624;BME280;9959;49.798;9.928;2022-08-19T12:14:12;99148.03;;;27.20;100.00
19624;BME280;9959;49.798;9.928;2022-08-19T12:16:44;99151.72;;;26.87;100.00
19624;BME280;9959;49.798;9.928;2022-08-19T12:19:17;99137.25;;;27.08;84.62
19624;BME280;9959;49.798;9.928;2022-08-19T12:21:48;99141.03;;;26.41;100.00
19624;BME280;9959;49.798;9.928;2022-08-19T12:24:17;99139.00;;;26.63;100.00
19624;BME280;9959;49.798;9.928;2022-08-19T12:26:49;99138.22;;;26.87;100.00
19624;BME280;9959;49.798;9.928;2022-08-19T12:29:19;99138.91;;;26.84;86.07
19624;BME280;9959;49.798;9.928;2022-08-19T12:31:51;99138.41;;;26.94;94.89
19624;BME280;9959;49.798;9.928;2022-08-19T12:34:19;99133.91;;;26.98;100.00
19624;BME280;9959;49.798;9.928;2022-08-19T12:36:47;99139.22;;;26.82;83.49
19624;BME280;9959;49.798;9.928;2022-08-19T12:39:16;99140.31;;;27.63;100.00
19624;BME280;9959;49.798;9.928;2022-08-19T12:41:44;99134.50;;;27.20;100.00
19624;BME280;9959;49.798;9.928;2022-08-19T12:44:20;99151.53;;;27.21;100.00
19624;BME280;9959;49.798;9.928;2022-08-19T12:46:56;99145.75;;;26.94;100.00
19624;BME280;9959;49.798;9.928;2022-08-19T12:49:25;99150.06;;;27.11;89.04
19624;BME280;9959;49.798;9.928;2022-08-19T12:52:15;99158.34;;;27.02;100.00
19624;BME280;9959;49.798;9.928;2022-08-19T12:54:49;99153.75;;;26.78;89.00
19624;BME280;9959;49.798;9.928;2022-08-19T12:57:20;99154.44;;;26.87;83.22
19624;BME280;9959;49.798;9.928;2022-08-19T13:00:00;99147.81;;;26.72;100.00
19624;BME280;9959;49.798;9.928;2022-08-19T13:02:34;99158.59;;;26.97;nan
19624;BME280;9959;49.798;9.928;2022-08-19T13:05:05;99166.28;;;26.58;100.00
19624;BME280;9959;49.798;9.928;2022-08-19T13:07:35;99175.59;;;26.11;88.93
19624;BME280;9959;49.798;9.928;2022-08-19T13:10:05;99158.25;;;26.24;100.00
19624;BME280;9959;49.798;9.928;2022-08-19T13:12:33;99162.31;;;26.18;83.15
19624;BME280;9959;49.798;9.928;2022-08-19T13:15:02;99162.91;;;26.36;100.00
19624;BME280;9959;49.798;9.928;2022-08-19T13:17:38;99163.34;;;26.51;100.00
19624;BME280;9959;49.798;9.928;2022-08-19T13:20:09;99152.53;;;26.26;83.44
19624;BME280;9959;49.798;9.928;2022-08-19T13:22:37;99156.69;;;26.48;100.00
19624;BME280;9959;49.798;9.928;2022-08-19T13:25:06;99153.63;;;26.99;89.02
19624;BME280;9959;49.798;9.928;2022-08-19T13:27:35;99147.16;;;27.04;100.00
19624;BME280;9959;49.798;9.928;2022-08-19T13:30:05;99150.09;;;27.51;100.00